Time;durP1;ratioP1;P1;durP2;ratioP2;P2;SDS_P1;SDS_P2;PMS_P1;PMS_P2;Temp;Humidity;BMP_temperature;BMP_pressure;BME280_temperature;BME280_humidity;BME280_pressure;Samples;Min_cycle;Max_cycle;Signal;HPM_P1;HPM_P2
2022/08/30 00:01:05;;;;;;;7.45;2.78;;;;;;;19.84;68.94;100885.53;8379556;28;20033;-49
2022/08/30 00:03:54;;;;;;;5.57;2.45;;;;;;;19.75;69.01;100890.28;8345406;28;20498;-50
2022/08/30 00:07:54;;;;;;;6.25;2.55;;;;;;;19.55;70.25;100889.16;8384463;28;20402;-51
2022/08/30 00:11:55;;;;;;;6.28;2.80;;;;;;;19.37;70.70;100892.25;8332640;28;20033;-51
2022/08/30 00:15:56;;;;;;;7.88;2.83;;;;;;;19.52;70.09;100888.69;8390149;28;20111;-49
2022/08/30 00:19:57;;;;;;;4.13;2.38;;;;;;;19.63;69.69;100896.41;8366787;28;20040;-50
2022/08/30 00:23:57;;;;;;;8.18;2.88;;;;;;;19.33;71.08;100901.91;8377491;28;20051;-49
2022/08/30 00:27:57;;;;;;;9.32;3.22;;;;;;;19.00;72.45;100899.66;8389057;28;20119;-52
2022/08/30 00:31:58;;;;;;;6.57;2.70;;;;;;;18.38;75.13;100898.94;8389321;28;20059;-50
2022/08/30 00:35:59;;;;;;;8.15;3.00;;;;;;;18.40;75.28;100893.28;8383923;28;20144;-52
2022/08/30 00:39:59;;;;;;;5.00;2.50;;;;;;;18.71;73.47;100889.44;8332856;28;20136;-49
2022/08/30 00:44:00;;;;;;;6.93;2.53;;;;;;;18.93;72.86;100904.16;8370320;28;20512;-49
2022/08/30 00:48:01;;;;;;;8.48;2.70;;;;;;;18.95;72.57;100902.94;8355336;28;20029;-53
2022/08/30 00:52:04;;;;;;;8.75;3.05;;;;;;;18.57;74.44;100901.19;8357721;28;20037;-49
2022/08/30 00:56:05;;;;;;;7.22;3.10;;;;;;;18.32;75.50;100898.75;8357995;28;20043;-49
2022/08/30 01:00:07;;;;;;;8.52;2.70;;;;;;;17.80;78.00;100903.16;8357720;28;20048;-48
2022/08/30 01:04:09;;;;;;;5.65;3.08;;;;;;;17.45;78.89;100905.34;8352791;28;20037;-49
2022/08/30 01:08:10;;;;;;;5.95;3.30;;;;;;;17.37;79.20;100907.22;8357055;28;20029;-49
2022/08/30 01:12:10;;;;;;;6.28;2.85;;;;;;;17.58;78.76;100913.00;8359196;28;20049;-50
2022/08/30 01:16:11;;;;;;;7.50;3.05;;;;;;;17.38;80.38;100915.25;8357539;28;20040;-48
2022/08/30 01:20:19;;;;;;;7.75;3.40;;;;;;;17.59;79.29;100912.81;8358087;28;20041;-49
2022/08/30 01:24:20;;;;;;;4.72;2.47;;;;;;;17.69;79.26;100918.09;8348050;28;20103;-49
2022/08/30 01:28:24;;;;;;;7.35;2.90;;;;;;;17.67;79.36;100908.34;8353857;28;20029;-49
2022/08/30 01:32:28;;;;;;;6.07;2.77;;;;;;;17.86;79.09;100913.38;8373096;28;20043;-51
2022/08/30 01:36:28;;;;;;;5.72;2.47;;;;;;;18.10;77.16;100921.50;8388837;28;20401;-48
2022/08/30 01:40:29;;;;;;;4.90;2.50;;;;;;;17.74;79.26;100915.66;8380254;28;20044;-48
2022/08/30 01:44:29;;;;;;;7.05;2.58;;;;;;;17.83;79.35;100920.06;8358093;28;20052;-50
2022/08/30 01:48:30;;;;;;;4.72;2.63;;;;;;;17.84;79.73;100916.31;8370661;28;20091;-52
2022/08/30 01:52:31;;;;;;;7.55;3.08;;;;;;;17.75;80.64;100922.84;8363374;28;20491;-50
2022/08/30 01:56:31;;;;;;;6.90;2.97;;;;;;;17.86;79.49;100916.13;8363111;28;20425;-49
2022/08/30 02:00:31;;;;;;;7.60;2.63;;;;;;;17.76;79.68;100913.63;8384121;28;20032;-49
2022/08/30 02:04:32;;;;;;;4.72;2.63;;;;;;;17.90;78.77;100915.59;8394193;28;20044;-49
2022/08/30 02:08:33;;;;;;;5.78;2.75;;;;;;;18.19;77.35;100913.06;8394839;28;20515;-51
2022/08/30 02:12:33;;;;;;;7.10;2.83;;;;;;;18.40;77.13;100917.94;8394800;28;20040;-48
2022/08/30 02:16:34;;;;;;;5.05;2.35;;;;;;;18.34;77.17;100922.22;8384075;28;20043;-46
2022/08/30 02:20:36;;;;;;;6.40;2.60;;;;;;;17.98;79.95;100926.50;8364536;28;21544;-47
2022/08/30 02:24:37;;;;;;;7.75;3.55;;;;;;;17.80;81.16;100914.97;8368160;28;20051;-46
2022/08/30 02:28:37;;;;;;;9.95;2.80;;;;;;;17.80;80.27;100914.97;8391882;28;20502;-47
2022/08/30 02:32:38;;;;;;;5.15;2.53;;;;;;;18.13;78.50;100916.53;8376363;28;20029;-48
2022/08/30 02:36:39;;;;;;;5.07;2.90;;;;;;;18.06;79.75;100915.53;8393590;28;20035;-48
2022/08/30 02:40:40;;;;;;;7.75;3.38;;;;;;;17.73;81.47;100904.91;8393643;28;20297;-48
2022/08/30 02:44:40;;;;;;;10.48;3.25;;;;;;;17.45;81.69;100897.13;8393091;28;20123;-47
2022/08/30 02:48:41;;;;;;;7.75;2.80;;;;;;;17.55;81.28;100889.59;8368554;28;20044;-48
2022/08/30 02:52:42;;;;;;;6.25;3.28;;;;;;;17.72;80.21;100884.94;8354373;28;20083;-48
2022/08/30 02:56:43;;;;;;;6.13;2.55;;;;;;;17.83;79.69;100890.00;8373325;28;20074;-47
2022/08/30 03:00:43;;;;;;;7.70;3.35;;;;;;;17.36;81.57;100883.66;8377373;28;20087;-51
2022/08/30 03:04:43;;;;;;;6.90;3.37;;;;;;;17.36;81.66;100889.94;8359920;28;20433;-52
2022/08/30 03:08:44;;;;;;;7.13;3.28;;;;;;;17.28;82.46;100886.41;8360433;28;20291;-53
2022/08/30 03:12:46;;;;;;;10.85;3.83;;;;;;;17.27;82.14;100885.53;8360410;28;20025;-50
2022/08/30 03:16:47;;;;;;;9.35;3.78;;;;;;;17.22;82.52;100898.03;8342502;28;20493;-53
2022/08/30 03:20:48;;;;;;;13.70;4.45;;;;;;;17.40;79.36;100891.31;8358000;28;20049;-49
2022/08/30 03:24:49;;;;;;;13.80;4.20;;;;;;;17.27;79.27;100896.47;8353022;28;20049;-52
2022/08/30 03:28:49;;;;;;;11.82;4.25;;;;;;;17.24;79.79;100898.72;8339254;28;20060;-51
2022/08/30 03:32:50;;;;;;;9.47;3.80;;;;;;;17.34;78.12;100899.38;8358166;28;20041;-52
2022/08/30 03:36:52;;;;;;;8.20;4.00;;;;;;;17.16;77.67;100894.13;8341609;28;20764;-52
2022/08/30 03:40:53;;;;;;;6.90;3.75;;;;;;;17.15;77.40;100897.88;8365509;28;20402;-52
2022/08/30 03:44:54;;;;;;;7.82;4.10;;;;;;;16.91;78.05;100894.31;8374472;28;20063;-52
2022/08/30 03:48:54;;;;;;;17.92;4.40;;;;;;;16.74;78.49;100888.00;8359889;28;20383;-52
2022/08/30 03:52:56;;;;;;;10.90;4.20;;;;;;;16.61;79.16;100897.72;8359370;28;20041;-52
2022/08/30 03:56:57;;;;;;;9.85;4.38;;;;;;;16.59;79.24;100894.34;8355242;28;20447;-49
2022/08/30 04:00:58;;;;;;;10.05;4.60;;;;;;;16.52;79.66;100893.28;8366228;28;20107;-52
2022/08/30 04:04:58;;;;;;;9.90;3.50;;;;;;;16.50;79.58;100889.91;8359941;28;20047;-52
2022/08/30 04:08:58;;;;;;;13.50;4.60;;;;;;;16.52;79.88;100898.75;8351863;28;20366;-52
2022/08/30 04:12:59;;;;;;;8.38;4.20;;;;;;;16.48;80.00;100895.53;8365116;28;20051;-50
2022/08/30 04:17:00;;;;;;;12.25;4.70;;;;;;;16.48;79.58;100898.25;8371635;28;20037;-51
2022/08/30 04:21:01;;;;;;;19.05;4.68;;;;;;;16.19;80.38;100896.97;8376494;28;20453;-49
2022/08/30 04:25:03;;;;;;;12.90;4.32;;;;;;;16.08;80.85;100894.56;8391480;28;20036;-51
2022/08/30 04:29:04;;;;;;;10.15;4.53;;;;;;;16.02;81.15;100907.00;8369359;28;20446;-51
2022/08/30 04:33:04;;;;;;;9.63;4.10;;;;;;;16.07;80.43;100898.31;8343053;28;20115;-52
2022/08/30 04:37:05;;;;;;;8.68;3.75;;;;;;;16.10;80.12;100903.44;8371731;28;20045;-52
2022/08/30 04:41:11;;;;;;;8.40;3.97;;;;;;;16.04;80.15;100904.09;8349961;28;20058;-51
2022/08/30 04:45:14;;;;;;;9.70;4.25;;;;;;;15.81;80.24;100902.97;8353460;28;20047;-53
2022/08/30 04:49:15;;;;;;;6.53;3.53;;;;;;;15.89;80.46;100917.50;8354406;28;20044;-51
2022/08/30 04:53:15;;;;;;;12.15;4.22;;;;;;;16.00;80.13;100919.06;8360690;28;20131;-53
2022/08/30 04:57:16;;;;;;;12.05;4.68;;;;;;;16.00;80.19;100921.78;8351538;28;20063;-52
2022/08/30 05:01:21;;;;;;;10.52;4.35;;;;;;;15.99;80.20;100923.69;8349926;28;21002;-52
2022/08/30 05:05:52;;;;;;;19.20;4.55;;;;;;;16.07;80.27;100931.03;8343352;28;20560;-50
2022/08/30 05:09:41;;;;;;;12.20;3.85;;;;;;;16.16;79.74;100936.34;8346649;28;20093;-51
2022/08/30 05:13:43;;;;;;;14.13;4.65;;;;;;;16.18;79.52;100923.41;8375123;28;20037;-54
2022/08/30 05:17:44;;;;;;;10.13;3.55;;;;;;;16.21;79.61;100931.25;8361035;28;20067;-52
2022/08/30 05:21:44;;;;;;;12.07;4.25;;;;;;;16.30;79.33;100937.56;8366927;28;20641;-52
2022/08/30 05:25:45;;;;;;;11.02;4.45;;;;;;;16.37;78.64;100938.59;8330063;28;20556;-53
2022/08/30 05:29:45;;;;;;;11.68;4.50;;;;;;;16.53;78.48;100949.59;8360050;28;20550;-52
2022/08/30 05:33:47;;;;;;;16.98;4.72;;;;;;;16.69;78.52;100957.81;8348550;28;20060;-52
2022/08/30 05:37:49;;;;;;;16.10;4.32;;;;;;;16.64;78.28;100957.47;8360161;28;20155;-52
2022/08/30 05:41:49;;;;;;;9.68;3.80;;;;;;;16.57;78.71;100946.38;8347136;28;20041;-50
2022/08/30 05:45:59;;;;;;;13.95;4.32;;;;;;;16.43;78.97;100944.28;8334884;28;20083;-51
2022/08/30 05:49:59;;;;;;;11.05;4.50;;;;;;;16.54;79.13;100948.56;8339747;28;20048;-52
2022/08/30 05:53:59;;;;;;;7.03;4.20;;;;;;;16.49;78.78;100954.53;8338402;28;20036;-52
2022/08/30 05:58:00;;;;;;;11.02;4.05;;;;;;;16.49;79.53;100945.47;8376389;28;20044;-52
2022/08/30 06:02:00;;;;;;;11.23;4.15;;;;;;;16.50;79.48;100945.31;8351769;28;20112;-49
2022/08/30 06:06:02;;;;;;;11.48;4.50;;;;;;;16.48;79.65;100941.91;8345292;28;20036;-52
2022/08/30 06:10:03;;;;;;;13.02;4.65;;;;;;;16.55;79.50;100948.41;8352466;28;20036;-52
2022/08/30 06:14:04;;;;;;;8.07;4.70;;;;;;;16.99;78.46;100951.69;8357940;28;20123;-49
2022/08/30 06:18:05;;;;;;;8.32;4.55;;;;;;;17.39;76.10;100948.91;8354559;28;20033;-48
2022/08/30 06:22:05;;;;;;;7.88;4.38;;;;;;;17.73;74.83;100952.25;8350546;28;20594;-52
2022/08/30 06:26:06;;;;;;;11.90;3.97;;;;;;;17.87;73.99;100948.78;8358257;28;20056;-52
2022/08/30 06:30:09;;;;;;;13.25;4.97;;;;;;;17.99;74.39;100946.53;8370875;28;20132;-53
2022/08/30 06:34:10;;;;;;;14.95;4.53;;;;;;;18.36;72.66;100950.25;8340727;28;20626;-52
2022/08/30 06:38:10;;;;;;;11.18;4.30;;;;;;;18.52;72.34;100954.81;8370890;28;20383;-48
2022/08/30 06:42:11;;;;;;;15.10;5.25;;;;;;;19.06;71.02;100949.06;8358414;28;20041;-51
2022/08/30 06:46:14;;;;;;;10.05;4.03;;;;;;;19.54;69.94;100946.94;8351822;28;20110;-49
2022/08/30 06:50:16;;;;;;;8.80;4.17;;;;;;;19.68;70.08;100951.56;8348948;28;20038;-52
2022/08/30 06:54:16;;;;;;;12.88;4.15;;;;;;;19.70;68.57;100953.09;8362540;28;20151;-50
2022/08/30 06:58:16;;;;;;;10.60;4.22;;;;;;;20.23;67.04;100957.44;8372409;28;20036;-49
2022/08/30 07:02:17;;;;;;;14.40;4.67;;;;;;;20.19;67.31;100947.91;8366830;28;20044;-52
2022/08/30 07:06:18;;;;;;;8.27;4.22;;;;;;;20.53;67.91;100946.22;8375036;28;20290;-49
2022/08/30 07:10:18;;;;;;;10.68;3.72;;;;;;;21.05;66.77;100941.25;8365118;28;20122;-49
2022/08/30 07:14:20;;;;;;;9.75;4.00;;;;;;;21.31;64.91;100949.72;8355694;28;20060;-49
2022/08/30 07:19:21;;;;;;;13.25;4.28;;;;;;;21.33;65.81;100955.91;8350882;28;20029;-49
2022/08/30 07:22:41;;;;;;;14.68;3.42;;;;;;;21.50;65.94;100956.41;8354345;28;20760;-47
2022/08/30 07:26:46;;;;;;;14.27;4.32;;;;;;;21.59;65.63;100960.72;8346113;28;20701;-48
2022/08/30 07:30:46;;;;;;;18.15;3.72;;;;;;;21.89;65.33;100950.38;8357612;28;20045;-47
2022/08/30 07:34:46;;;;;;;20.67;4.22;;;;;;;22.19;64.60;100957.28;8343990;28;20054;-48
2022/08/30 07:38:48;;;;;;;8.43;3.45;;;;;;;22.37;64.33;100955.69;8380896;28;20117;-47
2022/08/30 07:42:49;;;;;;;7.47;2.97;;;;;;;22.69;63.90;100966.00;8365811;28;20045;-47
2022/08/30 07:46:50;;;;;;;14.40;4.32;;;;;;;22.89;63.14;100969.66;8358960;28;20040;-48
2022/08/30 07:50:50;;;;;;;14.82;4.13;;;;;;;22.58;63.51;100968.50;8362666;28;20506;-48
2022/08/30 07:54:50;;;;;;;9.75;3.95;;;;;;;22.64;64.12;100962.16;8356755;28;20067;-50
2022/08/30 07:58:51;;;;;;;8.17;3.70;;;;;;;22.90;64.14;100967.72;8359261;28;20033;-48
2022/08/30 08:02:52;;;;;;;11.45;3.80;;;;;;;23.11;63.79;100971.19;8374015;28;20280;-48
2022/08/30 08:06:53;;;;;;;6.38;3.50;;;;;;;23.58;62.82;100966.53;8354415;28;20044;-48
2022/08/30 08:10:54;;;;;;;10.75;3.63;;;;;;;23.79;62.46;100966.28;8350768;28;20036;-48
2022/08/30 08:14:54;;;;;;;10.20;3.47;;;;;;;24.21;60.85;100968.56;8354767;28;20037;-51
2022/08/30 08:18:54;;;;;;;7.80;3.38;;;;;;;24.08;60.67;100971.34;8345104;28;20056;-48
2022/08/30 08:22:55;;;;;;;8.95;3.47;;;;;;;24.13;60.51;100964.13;8366761;28;20032;-48
2022/08/30 08:26:56;;;;;;;9.48;3.33;;;;;;;24.46;60.00;100969.50;8372701;28;20044;-48
2022/08/30 08:30:56;;;;;;;10.45;2.95;;;;;;;24.31;60.43;100957.88;8345629;28;20571;-48
2022/08/30 08:34:56;;;;;;;9.43;3.00;;;;;;;23.93;60.52;100960.53;8350151;28;20434;-49
2022/08/30 08:38:57;;;;;;;11.88;3.45;;;;;;;23.91;61.35;100964.56;8358074;28;20044;-51
2022/08/30 08:43:03;;;;;;;11.50;4.00;;;;;;;23.99;60.86;100965.22;8353157;28;20065;-48
2022/08/30 08:47:28;;;;;;;11.77;3.60;;;;;;;24.20;60.64;100966.84;8353243;28;20041;-48
2022/08/30 08:55:54;;;;;;;10.35;2.10;;;;;;;24.15;59.17;100966.66;8380449;28;20029;-48
2022/08/30 08:59:55;;;;;;;7.93;2.30;;;;;;;23.95;59.16;100946.53;8388378;28;20112;-48
2022/08/30 09:03:58;;;;;;;4.35;2.53;;;;;;;24.22;58.48;100946.22;8374564;28;20037;-48
2022/08/30 09:08:01;;;;;;;12.73;2.42;;;;;;;24.75;58.58;100944.06;8391594;28;20123;-48
2022/08/30 09:12:05;;;;;;;6.73;2.97;;;;;;;24.92;57.95;100950.78;8392267;28;20062;-52
2022/08/30 09:16:05;;;;;;;7.63;3.17;;;;;;;25.48;56.97;100951.63;8392730;28;20329;-51
2022/08/30 09:20:06;;;;;;;9.93;3.15;;;;;;;25.90;55.41;100945.25;8367419;28;20120;-48
2022/08/30 09:24:09;;;;;;;7.60;2.88;;;;;;;26.21;54.05;100947.03;8357074;28;20106;-51
2022/08/30 09:28:14;;;;;;;6.18;2.70;;;;;;;26.80;53.50;100945.19;8357954;28;20147;-48
2022/08/30 09:32:35;;;;;;;5.80;2.65;;;;;;;26.44;53.44;100942.47;8375837;28;20063;-49
2022/08/30 09:36:42;;;;;;;9.43;2.75;;;;;;;26.27;53.63;100946.97;8362532;28;20398;-47
2022/08/30 09:40:48;;;;;;;9.43;3.20;;;;;;;26.56;53.30;100939.75;8357537;28;20091;-47
2022/08/30 09:44:49;;;;;;;4.75;2.47;;;;;;;26.61;51.81;100937.13;8359787;28;20379;-48
2022/08/30 09:48:50;;;;;;;5.80;2.60;;;;;;;28.16;48.99;100927.22;8358689;28;20033;-51
2022/08/30 09:57:29;;;;;;;6.30;2.70;;;;;;;29.48;46.24;100926.72;8316450;27;20417;-47
2022/08/30 10:01:38;;;;;;;5.60;2.65;;;;;;;30.23;44.66;100930.72;8286802;28;20049;-47
2022/08/30 10:06:09;;;;;;;7.68;2.40;;;;;;;29.80;45.73;100930.63;8284211;28;20112;-47
2022/08/30 10:10:36;;;;;;;6.03;2.03;;;;;;;31.35;43.08;100928.06;8301460;28;20037;-47
2022/08/30 10:15:16;;;;;;;7.57;2.17;;;;;;;31.63;41.60;100924.91;8283699;28;20042;-49
2022/08/30 10:19:40;;;;;;;6.82;2.15;;;;;;;32.34;40.24;100927.06;8292276;28;20065;-50
2022/08/30 10:23:47;;;;;;;4.15;2.20;;;;;;;32.15;39.45;100917.44;8283428;28;20041;-51
2022/08/30 10:27:57;;;;;;;3.72;1.77;;;;;;;31.28;39.86;100916.25;8281688;28;20504;-49
2022/08/30 10:32:28;;;;;;;6.90;2.13;;;;;;;32.95;38.01;100905.69;8313223;28;20057;-51
2022/08/30 10:36:36;;;;;;;4.53;2.28;;;;;;;32.75;38.68;100911.25;8316252;28;20640;-48
2022/08/30 10:41:12;;;;;;;6.35;2.42;;;;;;;33.42;37.75;100901.53;8289035;28;20046;-48
2022/08/30 10:45:10;;;;;;;6.05;2.50;;;;;;;31.96;38.88;100908.66;8281989;28;20046;-50
2022/08/30 10:49:20;;;;;;;4.85;2.20;;;;;;;32.18;38.90;100905.69;8276321;28;20030;-49
2022/08/30 10:53:31;;;;;;;6.15;2.03;;;;;;;33.82;36.89;100895.88;8313588;28;20038;-50
2022/08/30 10:57:31;;;;;;;4.50;2.40;;;;;;;33.66;37.29;100897.03;8311081;28;20582;-53
2022/08/30 11:01:58;;;;;;;3.38;1.98;;;;;;;33.24;37.27;100895.63;8315430;28;20514;-50
2022/08/30 11:06:38;;;;;;;3.50;2.53;;;;;;;34.12;36.56;100899.75;8306831;28;20041;-53
2022/08/30 11:10:51;;;;;;;5.43;2.05;;;;;;;32.72;38.01;100895.81;8290600;28;20129;-52
2022/08/30 11:14:52;;;;;;;5.93;2.20;;;;;;;32.14;38.14;100896.16;8276575;28;20091;-52
2022/08/30 11:18:56;;;;;;;4.75;2.97;;;;;;;32.59;38.54;100898.34;8287389;28;20131;-52
2022/08/30 11:27:51;;;;;;;10.95;4.18;;;;;;;32.85;38.62;100886.91;8381075;27;20407;-54
2022/08/30 11:31:53;;;;;;;5.22;2.40;;;;;;;32.32;39.12;100890.06;8385016;28;20036;-51
2022/08/30 11:35:54;;;;;;;4.50;2.08;;;;;;;31.13;40.61;100893.75;8381907;28;20051;-49
2022/08/30 11:39:57;;;;;;;5.40;2.25;;;;;;;29.30;42.78;100882.41;8382398;28;20357;-52
2022/08/30 11:49:13;;;;;;;6.82;1.98;;;;;;;28.80;44.34;100870.38;8334681;27;20390;-52
2022/08/30 11:53:43;;;;;;;3.55;1.85;;;;;;;28.96;44.36;100866.75;8306443;28;20060;-53
2022/08/30 11:58:09;;;;;;;6.35;2.70;;;;;;;30.15;42.60;100861.38;8318228;28;20030;-52
2022/08/30 12:02:48;;;;;;;9.50;2.42;;;;;;;31.30;40.83;100856.19;8288424;28;20034;-47
2022/08/30 12:06:55;;;;;;;5.72;2.55;;;;;;;31.15;41.44;100860.78;8299444;28;20450;-51
2022/08/30 12:11:02;;;;;;;4.68;1.90;;;;;;;30.17;42.38;100861.97;8329884;28;20046;-46
2022/08/30 12:15:03;;;;;;;5.32;2.20;;;;;;;29.57;42.73;100860.25;8314426;28;20460;-48
2022/08/30 12:19:20;;;;;;;5.78;2.60;;;;;;;29.22;43.96;100848.56;8314583;28;20069;-48
2022/08/30 12:23:40;;;;;;;5.10;2.38;;;;;;;29.51;43.47;100859.34;8313084;28;20589;-49
2022/08/30 12:27:41;;;;;;;8.23;2.40;;;;;;;29.21;44.09;100844.09;8313987;28;20479;-49
2022/08/30 12:36:01;;;;;;;5.65;2.22;;;;;;;29.33;43.83;100844.84;8305198;28;20393;-49
2022/08/30 12:40:20;;;;;;;4.60;2.28;;;;;;;29.64;43.39;100833.91;8266470;28;20038;-48
2022/08/30 12:44:25;;;;;;;5.45;2.58;;;;;;;29.37;43.88;100834.88;8283031;28;20109;-50
2022/08/30 12:48:26;;;;;;;6.15;2.25;;;;;;;29.61;43.56;100828.81;8276295;28;20034;-49
2022/08/30 13:01:31;;;;;;;7.43;2.55;;;;;;;29.21;43.78;100824.59;8316720;27;20545;-47
2022/08/30 13:05:41;;;;;;;5.72;2.70;;;;;;;29.30;44.30;100823.91;8306013;28;20033;-47
2022/08/30 13:09:42;;;;;;;6.70;2.50;;;;;;;29.33;44.45;100812.25;8290078;28;20060;-47
2022/08/30 13:13:46;;;;;;;3.85;2.40;;;;;;;29.36;44.01;100806.16;8289554;28;21431;-48
2022/08/30 13:17:47;;;;;;;6.18;2.30;;;;;;;29.27;44.36;100812.44;8289657;28;20285;-49
2022/08/30 13:21:53;;;;;;;4.65;2.80;;;;;;;28.87;45.04;100798.66;8322722;28;20132;-47
2022/08/30 13:25:54;;;;;;;5.00;2.45;;;;;;;29.08;45.55;100797.06;8372235;27;20447;-47
2022/08/30 13:29:55;;;;;;;3.53;2.00;;;;;;;29.04;46.53;100791.19;8308163;28;20037;-49
2022/08/30 13:33:56;;;;;;;3.13;2.28;;;;;;;28.92;47.77;100786.75;8300523;28;20030;-49
2022/08/30 13:37:59;;;;;;;6.93;2.95;;;;;;;28.92;47.89;100787.63;8282553;28;20455;-48
2022/08/30 13:42:00;;;;;;;7.80;2.65;;;;;;;28.67;47.99;100784.41;8311189;28;20530;-51
2022/08/30 13:46:01;;;;;;;8.13;2.60;;;;;;;28.70;48.09;100770.00;8286882;28;20448;-47
2022/08/30 13:50:03;;;;;;;8.75;2.80;;;;;;;28.59;47.99;100770.91;8302998;28;20083;-46
2022/08/30 13:54:04;;;;;;;9.43;2.58;;;;;;;28.78;48.46;100763.97;8289937;28;20262;-46
2022/08/30 13:58:04;;;;;;;6.65;3.03;;;;;;;28.79;48.72;100762.91;8300408;28;20042;-47
2022/08/30 14:02:05;;;;;;;6.00;2.33;;;;;;;28.73;48.89;100761.13;8290387;28;20451;-48
2022/08/30 14:06:06;;;;;;;4.68;2.92;;;;;;;28.90;48.49;100756.38;8286013;28;20061;-48
2022/08/30 14:10:07;;;;;;;4.50;2.83;;;;;;;29.02;48.08;100754.34;8279664;28;20404;-49
2022/08/30 14:14:07;;;;;;;7.25;2.58;;;;;;;29.25;48.04;100754.19;8265959;28;20707;-49
2022/08/30 14:18:08;;;;;;;4.13;2.72;;;;;;;29.23;47.96;100761.94;8262246;28;20417;-51
2022/08/30 14:22:08;;;;;;;3.67;2.45;;;;;;;28.73;48.19;100752.78;8266974;28;20046;-48
2022/08/30 14:26:18;;;;;;;8.23;2.67;;;;;;;28.77;48.42;100748.38;8266490;28;20042;-48
2022/08/30 14:30:19;;;;;;;7.47;2.60;;;;;;;28.95;47.74;100747.28;8266170;28;20417;-47
2022/08/30 14:34:21;;;;;;;5.03;2.60;;;;;;;28.89;48.41;100754.72;8260372;28;20302;-48
2022/08/30 14:38:22;;;;;;;9.68;2.60;;;;;;;28.80;48.81;100747.88;8258881;28;20058;-49
2022/08/30 14:42:22;;;;;;;5.25;2.50;;;;;;;28.93;48.48;100735.56;8290173;28;20145;-48
2022/08/30 14:46:25;;;;;;;8.48;2.95;;;;;;;28.81;49.15;100752.34;8288215;28;20041;-48
2022/08/30 14:50:25;;;;;;;6.75;2.60;;;;;;;28.73;48.79;100743.59;8276923;28;20038;-47
2022/08/30 14:54:28;;;;;;;6.65;2.90;;;;;;;28.62;49.40;100731.44;8260086;28;20069;-48
2022/08/30 14:58:28;;;;;;;5.45;3.10;;;;;;;28.74;48.70;100734.97;8269453;28;20323;-47
2022/08/30 15:02:29;;;;;;;7.77;2.57;;;;;;;28.57;49.17;100729.41;8260304;28;20034;-48
2022/08/30 15:06:29;;;;;;;5.50;2.57;;;;;;;28.51;49.62;100718.44;8259733;28;20296;-48
2022/08/30 15:10:29;;;;;;;6.07;2.30;;;;;;;28.70;49.19;100717.09;8273055;28;20746;-47
2022/08/30 15:14:30;;;;;;;5.57;2.28;;;;;;;28.85;48.96;100725.69;8274550;28;20129;-48
2022/08/30 15:18:31;;;;;;;8.48;3.08;;;;;;;28.91;48.86;100713.53;8263944;28;20100;-48
2022/08/30 15:22:31;;;;;;;5.00;2.83;;;;;;;28.98;48.80;100714.19;8262629;28;20038;-47
2022/08/30 15:26:32;;;;;;;7.35;3.30;;;;;;;28.91;48.49;100698.78;8277363;28;20129;-49
2022/08/30 15:30:32;;;;;;;5.05;2.63;;;;;;;28.84;48.84;100701.72;8265703;28;20129;-47
2022/08/30 15:34:33;;;;;;;4.97;2.95;;;;;;;28.78;49.37;100685.22;8275489;28;20042;-48
2022/08/30 15:38:34;;;;;;;6.00;2.17;;;;;;;28.56;49.77;100687.91;8264812;28;20129;-47
2022/08/30 15:42:34;;;;;;;3.38;2.28;;;;;;;28.54;50.18;100690.97;8265024;28;20080;-47
2022/08/30 15:46:38;;;;;;;3.40;2.47;;;;;;;28.46;49.96;100687.75;8267777;28;20070;-48
2022/08/30 15:50:39;;;;;;;10.30;2.53;;;;;;;28.32;50.43;100681.66;8272356;28;20137;-51
2022/08/30 15:54:39;;;;;;;6.88;2.15;;;;;;;28.34;50.16;100678.63;8270507;28;20069;-48
2022/08/30 15:58:41;;;;;;;8.75;2.83;;;;;;;28.44;50.77;100684.34;8275652;28;20558;-48
2022/08/30 16:02:42;;;;;;;4.30;2.20;;;;;;;28.37;50.04;100681.75;8269284;28;20038;-48
2022/08/30 16:06:43;;;;;;;4.20;2.45;;;;;;;28.24;50.14;100678.47;8260449;28;20129;-48
2022/08/30 16:10:43;;;;;;;5.80;2.30;;;;;;;28.16;50.75;100668.59;8266419;28;20046;-48
2022/08/30 16:14:44;;;;;;;5.22;1.95;;;;;;;28.19;50.27;100670.00;8272977;28;20117;-47
2022/08/30 16:18:44;;;;;;;4.82;2.40;;;;;;;28.27;50.66;100680.75;8271861;28;20049;-48
2022/08/30 16:22:45;;;;;;;4.30;2.05;;;;;;;28.16;50.80;100671.38;8272600;28;20042;-48
2022/08/30 16:26:45;;;;;;;6.68;2.90;;;;;;;27.97;50.92;100678.25;8271790;28;20456;-49
2022/08/30 16:30:46;;;;;;;11.15;2.85;;;;;;;27.85;51.44;100671.03;8278403;28;20046;-47
2022/08/30 16:34:46;;;;;;;5.50;2.35;;;;;;;27.75;51.29;100687.53;8292519;28;20050;-47
2022/08/30 16:38:47;;;;;;;5.05;2.40;;;;;;;27.66;51.86;100669.56;8266890;28;20136;-47
2022/08/30 16:42:49;;;;;;;5.72;2.65;;;;;;;27.57;51.51;100666.31;8262141;28;20136;-47
2022/08/30 16:46:50;;;;;;;7.25;2.60;;;;;;;27.44;51.44;100671.34;8262711;28;20042;-48
2022/08/30 16:50:51;;;;;;;5.43;2.10;;;;;;;27.37;51.98;100676.16;8287388;28;20038;-48
2022/08/30 16:54:51;;;;;;;3.58;2.40;;;;;;;27.16;52.48;100669.31;8284956;28;20511;-48
2022/08/30 16:58:54;;;;;;;4.22;2.55;;;;;;;27.08;52.50;100677.19;8259999;28;20046;-48
2022/08/30 17:02:54;;;;;;;7.25;2.20;;;;;;;27.02;52.29;100667.91;8267910;28;20053;-50
2022/08/30 17:06:55;;;;;;;7.05;3.13;;;;;;;27.01;52.82;100676.47;8284165;28;20053;-47
2022/08/30 17:10:55;;;;;;;6.03;2.47;;;;;;;26.91;52.64;100676.22;8254457;28;20034;-47
2022/08/30 17:14:56;;;;;;;7.35;2.50;;;;;;;26.86;52.80;100673.34;8254078;28;20082;-47
2022/08/30 17:18:58;;;;;;;6.38;2.10;;;;;;;26.79;52.53;100684.56;8258012;28;20104;-47
2022/08/30 17:22:58;;;;;;;4.15;2.47;;;;;;;26.77;52.91;100687.59;8254322;28;20042;-50
2022/08/30 17:26:59;;;;;;;6.78;2.40;;;;;;;26.71;52.87;100683.00;8258581;28;20524;-48
2022/08/30 17:31:01;;;;;;;4.10;2.30;;;;;;;26.62;53.15;100689.16;8270467;28;20026;-47
2022/08/30 17:35:01;;;;;;;5.22;2.00;;;;;;;26.45;53.24;100693.69;8272313;28;20069;-48
2022/08/30 17:39:06;;;;;;;4.97;2.22;;;;;;;26.39;53.49;100706.59;8273510;28;20038;-47
2022/08/30 17:43:07;;;;;;;6.40;2.30;;;;;;;26.39;53.55;100709.38;8262599;28;20049;-48
2022/08/30 17:47:07;;;;;;;6.57;2.53;;;;;;;26.28;53.91;100714.88;8267222;28;20038;-47
2022/08/30 17:51:08;;;;;;;2.72;1.88;;;;;;;26.14;54.29;100725.31;8272612;28;20048;-49
2022/08/30 17:55:09;;;;;;;6.88;2.10;;;;;;;26.01;54.81;100728.31;8275248;28;20177;-47
2022/08/30 17:59:11;;;;;;;5.40;2.20;;;;;;;25.93;54.89;100738.84;8272398;28;20121;-47
2022/08/30 18:03:12;;;;;;;4.53;1.92;;;;;;;25.80;55.36;100730.72;8273938;28;20541;-47
2022/08/30 18:07:14;;;;;;;3.58;2.03;;;;;;;25.58;55.74;100741.44;8261712;28;20061;-46
2022/08/30 18:11:15;;;;;;;7.97;2.20;;;;;;;25.50;55.79;100738.16;8271692;28;20037;-52
2022/08/30 18:15:15;;;;;;;3.92;2.00;;;;;;;25.40;56.07;100737.88;8272082;28;20041;-47
2022/08/30 18:19:16;;;;;;;4.28;2.38;;;;;;;25.30;56.29;100757.75;8291413;28;20407;-47
2022/08/30 18:23:17;;;;;;;4.43;2.00;;;;;;;25.19;56.44;100758.53;8277667;28;20053;-47
2022/08/30 18:27:17;;;;;;;4.53;2.20;;;;;;;25.13;56.47;100764.13;8274622;28;20120;-47
2022/08/30 18:31:18;;;;;;;4.57;1.85;;;;;;;25.03;56.54;100756.34;8280663;28;20208;-48
2022/08/30 18:35:19;;;;;;;5.95;2.00;;;;;;;24.94;56.83;100771.53;8284418;28;20049;-47
2022/08/30 18:39:20;;;;;;;2.83;1.88;;;;;;;24.91;56.69;100772.84;8279156;28;20077;-47
2022/08/30 18:43:21;;;;;;;5.80;2.20;;;;;;;24.89;56.64;100768.63;8273299;28;20133;-46
2022/08/30 18:47:22;;;;;;;3.90;2.15;;;;;;;24.80;56.81;100769.97;8266271;28;20144;-47
2022/08/30 18:51:22;;;;;;;5.78;1.95;;;;;;;24.75;57.22;100772.56;8271366;28;20042;-46
2022/08/30 18:55:23;;;;;;;4.03;2.10;;;;;;;24.67;57.77;100772.88;8279360;28;20048;-47
2022/08/30 18:59:24;;;;;;;4.03;2.05;;;;;;;24.58;58.02;100779.72;8272551;28;20042;-47
2022/08/30 19:03:24;;;;;;;4.85;2.05;;;;;;;24.46;58.80;100778.75;8268194;28;20411;-47
2022/08/30 19:07:25;;;;;;;7.65;1.67;;;;;;;24.39;58.86;100780.69;8280688;28;20034;-48
2022/08/30 19:11:25;;;;;;;7.03;1.80;;;;;;;24.34;58.69;100781.38;8258052;28;20054;-47
2022/08/30 19:15:25;;;;;;;3.97;1.73;;;;;;;24.29;59.25;100794.16;8277606;28;20061;-47
2022/08/30 19:19:26;;;;;;;5.40;1.50;;;;;;;24.25;59.40;100787.41;8264934;28;20117;-49